createdAt,value
2018-11-07T00:00:39.658Z,18.40
2018-11-07T00:03:08.822Z,19.50
2018-11-07T00:05:37.596Z,17.50
2018-11-07T00:08:06.584Z,18.17
2018-11-07T00:10:35.154Z,19.67
2018-11-07T00:13:03.794Z,20.53
2018-11-07T00:15:32.537Z,16.80
2018-11-07T00:18:01.412Z,21.47
2018-11-07T00:20:30.177Z,17.40
2018-11-07T00:22:58.933Z,18.97
2018-11-07T00:25:27.652Z,19.93
2018-11-07T00:27:56.336Z,17.83
2018-11-07T00:30:24.982Z,20.23
2018-11-07T00:32:54.223Z,18.10
2018-11-07T00:35:23.187Z,18.13
2018-11-07T00:37:52.052Z,21.23
2018-11-07T00:40:20.941Z,20.20
2018-11-07T00:42:49.721Z,21.20
2018-11-07T00:45:18.506Z,18.80
2018-11-07T00:47:47.244Z,17.40
2018-11-07T00:50:17.435Z,18.47
2018-11-07T00:52:46.618Z,19.10
2018-11-07T00:55:16.743Z,18.47
2018-11-07T00:57:45.514Z,19.87
2018-11-07T01:00:19.826Z,19.80
2018-11-07T01:02:49.799Z,18.93
2018-11-07T01:05:18.792Z,19.17
2018-11-07T01:07:48.900Z,21.37
2018-11-07T01:10:17.804Z,18.07
2018-11-07T01:12:46.529Z,19.40
2018-11-07T01:15:17.567Z,18.27
2018-11-07T01:17:46.362Z,17.53
2018-11-07T01:20:15.401Z,19.80
2018-11-07T01:22:44.612Z,17.13
2018-11-07T01:25:13.631Z,20.07
2018-11-07T01:27:42.590Z,19.83
2018-11-07T01:30:13.662Z,19.70
2018-11-07T01:32:42.531Z,18.97
2018-11-07T01:35:11.318Z,17.93
2018-11-07T01:37:41.040Z,20.37
2018-11-07T01:40:11.986Z,20.03
2018-11-07T01:42:43.826Z,18.77
2018-11-07T01:45:13.454Z,18.93
2018-11-07T01:47:42.182Z,18.37
2018-11-07T01:50:12.972Z,19.90
2018-11-07T01:52:42.029Z,16.10
2018-11-07T01:55:11.416Z,19.63
2018-11-07T01:57:40.203Z,18.30
2018-11-07T02:00:10.919Z,20.40
2018-11-07T02:02:40.124Z,17.20
2018-11-07T02:05:08.930Z,17.17
2018-11-07T02:07:37.703Z,17.50
2018-11-07T02:10:07.730Z,17.70
2018-11-07T02:12:37.615Z,16.90
2018-11-07T02:15:07.169Z,17.33
2018-11-07T02:17:36.314Z,17.27
2018-11-07T02:20:05.767Z,15.73
2018-11-07T02:22:34.574Z,20.67
2018-11-07T02:25:03.487Z,16.70
2018-11-07T02:27:32.217Z,18.60
2018-11-07T02:30:00.931Z,17.93
2018-11-07T02:32:31.487Z,16.97
2018-11-07T02:35:00.163Z,16.57
2018-11-07T02:37:28.860Z,15.40
2018-11-07T02:39:57.580Z,13.97
2018-11-07T02:42:26.240Z,16.47
2018-11-07T02:44:54.884Z,16.70
2018-11-07T02:47:23.574Z,17.00
2018-11-07T02:49:52.662Z,14.33
2018-11-07T02:52:21.728Z,16.70
2018-11-07T02:54:50.413Z,17.13
2018-11-07T02:57:19.153Z,16.47
2018-11-07T02:59:47.957Z,18.40
2018-11-07T03:02:16.564Z,15.37
2018-11-07T03:04:45.127Z,15.73
2018-11-07T03:07:13.844Z,17.03
2018-11-07T03:09:42.602Z,17.77
2018-11-07T03:12:11.240Z,19.50
2018-11-07T03:14:39.845Z,18.40
2018-11-07T03:17:08.675Z,19.20
2018-11-07T03:19:37.669Z,18.23
2018-11-07T03:22:06.665Z,19.00
2018-11-07T03:24:35.533Z,16.37
2018-11-07T03:27:04.254Z,18.00
2018-11-07T03:29:33.068Z,16.70
2018-11-07T03:32:01.847Z,18.07
2018-11-07T03:34:30.618Z,16.70
2018-11-07T03:36:59.405Z,18.57
2018-11-07T03:39:28.225Z,16.27
2018-11-07T03:41:57.064Z,15.87
2018-11-07T03:44:26.140Z,16.70
2018-11-07T03:46:54.749Z,15.80
2018-11-07T03:49:23.855Z,16.17
2018-11-07T03:51:52.590Z,16.90
2018-11-07T03:54:21.234Z,15.80
2018-11-07T03:56:49.927Z,13.50
2018-11-07T03:59:18.623Z,13.87
2018-11-07T04:01:47.282Z,15.87
2018-11-07T04:04:16.012Z,16.83
2018-11-07T04:06:45.056Z,14.33
2018-11-07T04:09:14.268Z,15.47
2018-11-07T04:11:43.887Z,16.23
2018-11-07T04:14:12.627Z,17.30
2018-11-07T04:16:41.687Z,15.60
2018-11-07T04:19:10.502Z,12.90
2018-11-07T04:21:39.726Z,12.43
2018-11-07T04:24:08.535Z,15.10
2018-11-07T04:26:38.264Z,14.53
2018-11-07T04:29:06.994Z,14.73
2018-11-07T04:31:35.652Z,17.10
2018-11-07T04:34:05.446Z,13.93
2018-11-07T04:36:34.385Z,17.00
2018-11-07T04:39:03.093Z,16.77
2018-11-07T04:41:31.805Z,16.13
2018-11-07T04:44:00.486Z,18.33
2018-11-07T04:46:29.071Z,17.33
2018-11-07T04:48:57.755Z,19.00
2018-11-07T04:51:26.335Z,16.60
2018-11-07T04:53:55.329Z,14.33
2018-11-07T04:56:23.972Z,17.37
2018-11-07T04:58:52.754Z,16.30
2018-11-07T05:01:21.531Z,16.87
2018-11-07T05:03:50.218Z,16.30
2018-11-07T05:06:18.856Z,14.40
2018-11-07T05:08:47.599Z,15.97
2018-11-07T05:11:16.954Z,14.30
2018-11-07T05:13:46.550Z,16.30
2018-11-07T05:16:15.395Z,14.77
2018-11-07T05:18:44.228Z,14.90
2018-11-07T05:21:12.946Z,14.87
2018-11-07T05:23:41.820Z,16.67
2018-11-07T05:26:11.121Z,15.30
2018-11-07T05:28:39.818Z,13.07
2018-11-07T05:31:08.535Z,15.03
2018-11-07T05:33:37.244Z,16.60
2018-11-07T05:36:06.399Z,14.53
2018-11-07T05:38:35.117Z,14.70
2018-11-07T05:41:03.968Z,13.90
2018-11-07T05:43:32.612Z,15.67
2018-11-07T05:46:01.434Z,15.13
2018-11-07T05:48:30.196Z,14.20
2018-11-07T05:50:58.897Z,15.13
2018-11-07T05:53:27.808Z,15.60
2018-11-07T05:55:56.671Z,15.13
2018-11-07T05:58:25.339Z,17.07
2018-11-07T06:00:54.261Z,17.77
2018-11-07T06:03:23.128Z,14.30
2018-11-07T06:05:51.855Z,17.30
2018-11-07T06:08:20.572Z,16.00
2018-11-07T06:10:49.326Z,14.83
2018-11-07T06:13:18.099Z,16.03
2018-11-07T06:15:46.920Z,17.93
2018-11-07T06:18:15.768Z,13.83
2018-11-07T06:20:44.456Z,16.50
2018-11-07T06:23:13.251Z,14.73
2018-11-07T06:25:42.018Z,15.30
2018-11-07T06:28:10.913Z,16.17
2018-11-07T06:30:39.795Z,16.00
2018-11-07T06:33:08.611Z,14.60
2018-11-07T06:35:37.372Z,13.73
2018-11-07T06:38:06.280Z,12.63
2018-11-07T06:40:34.960Z,13.40
2018-11-07T06:43:03.647Z,12.30
2018-11-07T06:45:32.340Z,11.00
2018-11-07T06:48:01.148Z,12.47
2018-11-07T06:50:29.916Z,12.70
2018-11-07T06:52:58.658Z,12.30
2018-11-07T06:55:27.425Z,12.73
2018-11-07T06:57:56.476Z,13.43
2018-11-07T07:00:28.173Z,12.07
2018-11-07T07:02:58.930Z,11.00
2018-11-07T07:05:27.737Z,10.87
2018-11-07T07:07:57.003Z,10.70
2018-11-07T07:10:26.786Z,11.87
2018-11-07T07:12:55.705Z,11.73
2018-11-07T07:15:24.415Z,11.83
2018-11-07T07:17:53.235Z,12.07
2018-11-07T07:20:22.127Z,12.37
2018-11-07T07:22:51.004Z,13.70
2018-11-07T07:25:19.951Z,12.57
2018-11-07T07:27:48.682Z,10.90
2018-11-07T07:30:19.830Z,10.90
2018-11-07T07:32:48.993Z,11.07
2018-11-07T07:35:18.923Z,13.77
2018-11-07T07:37:47.642Z,14.33
2018-11-07T07:40:17.064Z,13.40
2018-11-07T07:42:46.523Z,12.70
2018-11-07T07:45:17.846Z,14.77
2018-11-07T07:47:47.075Z,14.73
2018-11-07T07:50:17.250Z,14.17
2018-11-07T07:52:46.306Z,13.77
2018-11-07T07:55:20.623Z,14.53
2018-11-07T07:57:49.370Z,16.97
2018-11-07T08:00:19.348Z,12.67
2018-11-07T08:02:49.440Z,12.47
2018-11-07T08:05:22.868Z,13.63
2018-11-07T08:07:51.597Z,13.37
2018-11-07T08:10:21.524Z,13.90
2018-11-07T08:12:50.828Z,12.00
2018-11-07T08:15:24.432Z,12.27
2018-11-07T08:17:53.104Z,15.03
2018-11-07T08:20:22.100Z,12.73
2018-11-07T08:22:50.840Z,13.53
2018-11-07T08:25:29.073Z,12.87
2018-11-07T08:27:57.771Z,12.40
2018-11-07T08:30:26.520Z,12.20
2018-11-07T08:32:55.252Z,12.17
2018-11-07T08:35:24.072Z,13.70
2018-11-07T08:37:52.776Z,11.50
2018-11-07T08:40:22.951Z,10.13
2018-11-07T08:42:51.870Z,11.87
2018-11-07T08:45:34.494Z,11.73
2018-11-07T08:48:03.258Z,10.60
2018-11-07T08:50:31.848Z,9.93
2018-11-07T08:53:00.551Z,10.27
2018-11-07T08:55:29.154Z,10.87
2018-11-07T08:57:57.972Z,10.40
2018-11-07T09:00:26.805Z,9.40
2018-11-07T09:02:55.543Z,10.40
2018-11-07T09:05:26.407Z,10.50
2018-11-07T09:07:55.154Z,8.30
2018-11-07T09:10:24.588Z,11.40
2018-11-07T09:12:53.336Z,7.60
2018-11-07T09:15:23.963Z,7.53
2018-11-07T09:17:52.648Z,9.33
2018-11-07T09:20:22.540Z,6.00
2018-11-07T09:22:51.285Z,6.07
2018-11-07T09:25:20.201Z,6.10
2018-11-07T09:27:49.143Z,6.63
2018-11-07T09:30:19.341Z,5.87
2018-11-07T09:32:48.104Z,5.53
2018-11-07T09:35:16.847Z,5.37
2018-11-07T09:37:45.717Z,4.53
2018-11-07T09:40:15.709Z,6.50
2018-11-07T09:42:45.054Z,4.23
2018-11-07T09:45:15.506Z,4.33
2018-11-07T09:47:45.004Z,4.50
2018-11-07T09:50:14.852Z,4.03
2018-11-07T09:52:44.920Z,4.73
2018-11-07T09:55:15.169Z,4.57
2018-11-07T09:57:44.127Z,5.03
2018-11-07T10:00:16.792Z,4.53
2018-11-07T10:02:45.963Z,3.93
2018-11-07T10:05:15.696Z,4.63
2018-11-07T10:07:44.386Z,4.20
2018-11-07T10:10:18.312Z,4.10
2018-11-07T10:12:47.327Z,4.40
2018-11-07T10:15:16.323Z,2.93
2018-11-07T10:17:45.126Z,3.40
2018-11-07T10:20:17.260Z,4.17
2018-11-07T10:22:46.629Z,2.70
2018-11-07T10:25:17.156Z,3.57
2018-11-07T10:27:47.033Z,3.50
2018-11-07T10:30:18.287Z,3.90
2018-11-07T10:32:48.075Z,4.43
2018-11-07T10:35:25.943Z,3.50
2018-11-07T10:37:54.848Z,4.37
2018-11-07T10:40:24.845Z,3.27
2018-11-07T10:42:53.737Z,3.83
2018-11-07T10:45:22.477Z,2.60
2018-11-07T10:47:51.706Z,3.27
2018-11-07T10:50:21.348Z,3.70
2018-11-07T10:52:50.739Z,3.27
2018-11-07T10:55:27.331Z,3.53
2018-11-07T10:57:56.174Z,2.77
2018-11-07T11:00:30.321Z,2.73
2018-11-07T11:03:09.203Z,3.53
2018-11-07T11:05:39.413Z,2.60
2018-11-07T11:08:08.608Z,4.23
2018-11-07T11:10:37.573Z,2.50
2018-11-07T11:13:06.388Z,2.60
2018-11-07T11:15:35.224Z,2.17
2018-11-07T11:18:03.942Z,4.50
2018-11-07T11:20:32.792Z,2.50
2018-11-07T11:23:01.473Z,3.00
2018-11-07T11:25:31.224Z,2.70
2018-11-07T11:28:00.015Z,2.40
2018-11-07T11:30:28.720Z,2.47
2018-11-07T11:32:57.392Z,2.33
2018-11-07T11:35:27.235Z,2.40
2018-11-07T11:37:56.100Z,2.80
2018-11-07T11:40:24.944Z,2.40
2018-11-07T11:42:53.730Z,2.00
2018-11-07T11:45:30.245Z,2.43
2018-11-07T11:47:59.089Z,2.20
2018-11-07T11:50:27.875Z,1.60
2018-11-07T11:52:56.556Z,2.43
2018-11-07T11:55:25.446Z,2.00
2018-11-07T11:57:54.187Z,2.40
2018-11-07T12:00:23.094Z,1.80
2018-11-07T12:02:51.796Z,2.40
2018-11-07T12:05:20.731Z,2.40
2018-11-07T12:07:49.635Z,2.07
2018-11-07T12:10:21.689Z,1.87
2018-11-07T12:12:51.864Z,1.83
2018-11-07T12:15:21.659Z,2.23
2018-11-07T12:17:50.411Z,2.83
2018-11-07T12:20:19.352Z,2.37
2018-11-07T12:22:48.152Z,2.10
2018-11-07T12:25:17.776Z,3.73
2018-11-07T12:27:47.672Z,2.33
2018-11-07T12:30:18.484Z,3.07
2018-11-07T12:32:48.411Z,1.70
2018-11-07T12:35:17.751Z,2.27
2018-11-07T12:37:54.479Z,2.03
2018-11-07T12:40:23.229Z,1.70
2018-11-07T12:42:51.990Z,1.93
2018-11-07T12:45:20.780Z,1.80
2018-11-07T12:47:49.764Z,1.90
2018-11-07T12:50:21.030Z,2.10
2018-11-07T12:52:49.737Z,2.10
2018-11-07T12:55:19.509Z,1.80
2018-11-07T12:57:56.043Z,1.70
2018-11-07T13:00:26.222Z,2.17
2018-11-07T13:02:55.032Z,2.43
2018-11-07T13:05:24.956Z,2.10
2018-11-07T13:07:54.700Z,1.80
2018-11-07T13:10:23.923Z,1.53
2018-11-07T13:12:53.113Z,2.03
2018-11-07T13:15:21.980Z,2.07
2018-11-07T13:17:51.563Z,1.83
2018-11-07T13:20:21.682Z,1.77
2018-11-07T13:22:51.715Z,1.87
2018-11-07T13:25:20.848Z,1.53
2018-11-07T13:27:53.115Z,2.23
2018-11-07T13:30:29.619Z,2.00
2018-11-07T13:32:58.355Z,1.77
2018-11-07T13:35:27.072Z,1.93
2018-11-07T13:38:00.912Z,1.30
2018-11-07T13:40:29.540Z,1.83
2018-11-07T13:42:58.287Z,1.80
2018-11-07T13:45:27.084Z,1.63
2018-11-07T13:47:56.892Z,1.77
2018-11-07T13:50:25.540Z,1.97
2018-11-07T13:52:54.245Z,1.80
2018-11-07T13:55:23.038Z,1.90
2018-11-07T13:58:12.465Z,1.60
2018-11-07T14:00:41.251Z,2.73
2018-11-07T14:03:10.029Z,3.80
2018-11-07T14:05:38.972Z,3.67
2018-11-07T14:08:07.668Z,2.40
2018-11-07T14:10:36.467Z,2.17
2018-11-07T14:13:05.201Z,2.20
2018-11-07T14:15:33.995Z,2.10
2018-11-07T14:18:04.821Z,1.97
2018-11-07T14:20:33.567Z,1.93
2018-11-07T14:23:02.328Z,2.20
2018-11-07T14:25:31.355Z,1.80
2018-11-07T14:28:00.279Z,1.90
2018-11-07T14:30:29.172Z,1.67
2018-11-07T14:32:59.130Z,1.50
2018-11-07T14:35:27.879Z,2.03
2018-11-07T14:37:57.776Z,1.80
2018-11-07T14:40:26.505Z,2.00
2018-11-07T14:42:55.277Z,2.10
2018-11-07T14:45:24.076Z,2.07
2018-11-07T14:47:53.932Z,2.03
2018-11-07T14:50:22.694Z,2.10
2018-11-07T14:52:51.412Z,2.43
2018-11-07T14:55:20.197Z,1.77
2018-11-07T14:57:48.969Z,1.70
2018-11-07T15:00:18.331Z,2.00
2018-11-07T15:02:47.353Z,1.90
2018-11-07T15:05:17.203Z,2.20
2018-11-07T15:07:58.814Z,1.93
2018-11-07T15:10:54.880Z,1.50
2018-11-07T15:13:23.687Z,2.50
2018-11-07T15:15:52.472Z,2.03
2018-11-07T15:18:21.152Z,1.50
2018-11-07T15:20:50.124Z,1.80
2018-11-07T15:23:18.976Z,2.63
2018-11-07T15:25:47.784Z,3.50
2018-11-07T15:28:21.998Z,1.90
2018-11-07T15:30:50.695Z,2.03
2018-11-07T15:33:19.533Z,1.80
2018-11-07T15:35:48.342Z,2.17
2018-11-07T15:38:18.108Z,2.43
2018-11-07T15:40:46.863Z,1.53
2018-11-07T15:43:15.717Z,1.83
2018-11-07T15:45:44.499Z,2.40
2018-11-07T15:48:13.388Z,2.00
2018-11-07T15:50:47.399Z,2.27
2018-11-07T15:53:16.262Z,2.00
2018-11-07T15:55:45.030Z,3.07
2018-11-07T15:58:31.151Z,1.90
2018-11-07T16:00:59.925Z,3.33
2018-11-07T16:03:33.864Z,2.10
2018-11-07T16:06:02.727Z,2.00
2018-11-07T16:08:36.545Z,2.20
2018-11-07T16:11:05.580Z,1.80
2018-11-07T16:13:34.377Z,1.63
2018-11-07T16:16:03.105Z,2.00
2018-11-07T16:18:31.923Z,1.87
2018-11-07T16:21:00.701Z,1.77
2018-11-07T16:23:29.592Z,2.57
2018-11-07T16:25:58.502Z,2.20
2018-11-07T16:28:27.347Z,2.20
2018-11-07T16:30:56.133Z,2.30
2018-11-07T16:33:24.984Z,2.20
2018-11-07T16:35:53.927Z,2.00
2018-11-07T16:38:23.050Z,3.00
2018-11-07T16:40:52.039Z,2.23
2018-11-07T16:43:20.705Z,2.43
2018-11-07T16:45:49.408Z,3.00
2018-11-07T16:48:20.216Z,2.40
2018-11-07T16:50:48.915Z,2.23
2018-11-07T16:53:17.872Z,2.70
2018-11-07T16:55:46.631Z,3.17
2018-11-07T16:58:15.537Z,2.57
2018-11-07T17:00:44.858Z,2.63
2018-11-07T17:03:14.171Z,2.10
2018-11-07T17:05:42.994Z,2.17
2018-11-07T17:08:11.899Z,1.80
2018-11-07T17:10:41.176Z,1.83
2018-11-07T17:13:10.096Z,2.00
2018-11-07T17:15:39.001Z,2.30
2018-11-07T17:18:07.923Z,2.13
2018-11-07T17:20:37.007Z,2.10
2018-11-07T17:23:05.975Z,1.93
2018-11-07T17:25:34.793Z,2.00
2018-11-07T17:28:03.663Z,2.13
2018-11-07T17:30:32.489Z,2.30
2018-11-07T17:36:14.755Z,2.77
2018-11-07T17:38:44.347Z,2.00
2018-11-07T17:41:13.789Z,2.70
2018-11-07T17:43:43.475Z,2.70
2018-11-07T17:46:13.222Z,1.97
2018-11-07T17:48:42.346Z,2.53
2018-11-07T17:51:11.707Z,2.50
2018-11-07T17:53:40.824Z,3.00
2018-11-07T17:56:10.212Z,1.77
2018-11-07T17:58:39.281Z,2.40
2018-11-07T18:01:08.791Z,1.73
2018-11-07T18:03:37.812Z,2.23
2018-11-07T18:06:06.982Z,2.07
2018-11-07T18:08:36.323Z,2.27
2018-11-07T18:11:05.966Z,1.93
2018-11-07T18:13:35.289Z,1.80
2018-11-07T18:16:04.637Z,2.30
2018-11-07T18:18:34.017Z,2.80
2018-11-07T18:21:03.565Z,2.20
2018-11-07T18:23:32.842Z,2.87
2018-11-07T18:26:02.289Z,2.70
2018-11-07T18:28:31.742Z,3.10
2018-11-07T18:31:01.196Z,3.20
2018-11-07T18:33:32.017Z,3.00
2018-11-07T18:36:01.619Z,3.17
2018-11-07T18:38:31.034Z,2.47
2018-11-07T18:41:00.522Z,2.60
2018-11-07T18:43:30.043Z,2.70
2018-11-07T18:45:59.451Z,2.40
2018-11-07T18:48:28.764Z,2.63
2018-11-07T18:50:58.321Z,3.90
2018-11-07T18:53:27.895Z,3.40
2018-11-07T18:55:57.341Z,3.43
2018-11-07T18:58:26.850Z,3.67
2018-11-07T19:00:56.267Z,3.80
2018-11-07T19:03:25.758Z,3.43
2018-11-07T19:05:55.211Z,3.00
2018-11-07T19:08:24.712Z,2.90
2018-11-07T19:10:54.437Z,2.90
2018-11-07T19:13:23.902Z,4.87
2018-11-07T19:15:53.448Z,2.77
2018-11-07T19:18:23.142Z,2.67
2018-11-07T19:20:52.694Z,2.30
2018-11-07T19:23:22.038Z,2.40
2018-11-07T19:25:51.662Z,2.57
2018-11-07T19:28:21.284Z,2.90
2018-11-07T19:30:50.728Z,3.93
2018-11-07T19:33:20.991Z,3.83
2018-11-07T19:35:50.431Z,2.70
2018-11-07T19:38:19.999Z,3.43
2018-11-07T19:40:49.466Z,4.13
2018-11-07T19:43:18.935Z,3.67
2018-11-07T19:45:48.434Z,4.10
2018-11-07T19:48:17.918Z,2.77
2018-11-07T19:50:47.392Z,3.30
2018-11-07T19:53:16.805Z,4.20
2018-11-07T19:55:46.155Z,3.00
2018-11-07T19:58:15.568Z,2.60
2018-11-07T20:00:45.037Z,3.37
2018-11-07T20:03:14.932Z,3.00
2018-11-07T20:05:44.488Z,3.60
2018-11-07T20:08:14.038Z,3.60
2018-11-07T20:10:43.921Z,3.17
2018-11-07T20:13:13.449Z,2.57
2018-11-07T20:15:43.027Z,3.40
2018-11-07T20:18:12.535Z,3.50
2018-11-07T20:20:42.003Z,2.77
2018-11-07T20:23:11.519Z,3.10
2018-11-07T20:25:40.907Z,3.00
2018-11-07T20:28:10.485Z,3.70
2018-11-07T20:30:39.959Z,3.07
2018-11-07T20:33:09.533Z,3.47
2018-11-07T20:35:39.185Z,3.27
2018-11-07T20:38:09.275Z,3.10
2018-11-07T20:40:39.191Z,2.83
2018-11-07T20:43:08.627Z,3.33
2018-11-07T20:45:38.033Z,4.00
2018-11-07T20:48:07.589Z,2.53
2018-11-07T20:50:37.072Z,2.93
2018-11-07T20:53:06.705Z,3.00
2018-11-07T20:55:36.201Z,2.80
2018-11-07T20:58:07.011Z,2.77
2018-11-07T21:00:36.457Z,2.93
2018-11-07T21:03:06.136Z,2.80
2018-11-07T21:05:35.995Z,2.70
2018-11-07T21:08:05.557Z,3.27
2018-11-07T21:10:34.976Z,2.30
2018-11-07T21:13:04.651Z,2.37
2018-11-07T21:15:34.089Z,2.90
2018-11-07T21:18:03.509Z,4.03
2018-11-07T21:20:33.095Z,3.47
2018-11-07T21:23:02.740Z,2.77
2018-11-07T21:25:32.241Z,3.33
2018-11-07T21:28:01.627Z,3.00
2018-11-07T21:30:31.105Z,3.60
2018-11-07T21:33:00.394Z,3.50
2018-11-07T21:35:30.274Z,2.37
2018-11-07T21:37:59.549Z,3.67
2018-11-07T21:40:28.945Z,2.93
2018-11-07T21:42:58.343Z,3.30
2018-11-07T21:45:27.734Z,2.37
2018-11-07T21:47:56.756Z,2.70
2018-11-07T21:50:26.614Z,3.30
2018-11-07T21:52:55.795Z,2.93
2018-11-07T21:55:24.970Z,2.13
2018-11-07T21:57:54.611Z,2.63
2018-11-07T22:00:23.953Z,3.13
2018-11-07T22:02:53.060Z,3.13
2018-11-07T22:05:22.473Z,2.57
2018-11-07T22:07:51.718Z,2.43
2018-11-07T22:10:21.390Z,2.00
2018-11-07T22:12:50.674Z,3.30
2018-11-07T22:15:20.119Z,2.27
2018-11-07T22:17:49.978Z,2.70
2018-11-07T22:20:21.557Z,2.60
2018-11-07T22:22:50.595Z,3.10
2018-11-07T22:25:20.169Z,2.40
2018-11-07T22:27:49.286Z,3.27
2018-11-07T22:30:19.179Z,3.00
2018-11-07T22:32:48.134Z,3.33
2018-11-07T22:35:18.359Z,3.80
2018-11-07T22:37:47.826Z,4.30
2018-11-07T22:40:18.995Z,3.43
2018-11-07T22:42:48.758Z,3.33
2018-11-07T22:45:17.769Z,3.23
2018-11-07T22:47:46.845Z,3.30
2018-11-07T22:50:17.211Z,3.13
2018-11-07T22:52:46.529Z,3.50
2018-11-07T22:55:15.470Z,2.80
2018-11-07T22:57:44.593Z,3.23
2018-11-07T23:00:21.053Z,3.10
2018-11-07T23:02:52.180Z,3.57
2018-11-07T23:05:21.818Z,3.40
2018-11-07T23:07:51.328Z,3.40
2018-11-07T23:10:20.732Z,3.50
2018-11-07T23:12:50.595Z,3.07
2018-11-07T23:15:24.619Z,3.43
2018-11-07T23:17:54.200Z,3.63
2018-11-07T23:20:23.236Z,2.83
2018-11-07T23:22:52.536Z,3.87
2018-11-07T23:25:21.933Z,3.60
2018-11-07T23:27:51.270Z,3.73
2018-11-07T23:30:20.313Z,3.27
2018-11-07T23:32:49.349Z,3.10
2018-11-07T23:35:18.566Z,3.30
2018-11-07T23:37:47.891Z,2.90
2018-11-07T23:40:17.294Z,2.93
2018-11-07T23:42:46.399Z,4.30
2018-11-07T23:45:15.513Z,3.23
2018-11-07T23:47:44.575Z,3.40
2018-11-07T23:50:13.664Z,3.90
2018-11-07T23:52:49.815Z,3.47
2018-11-07T23:55:20.357Z,2.97
2018-11-07T23:57:50.836Z,3.17
